Orbital elements of SL-16 DEB
| Launched | 24 December 1992 |
| Flight ended | – |
| Launch site | Tyuratam Missile and Space Center, Kazakhstan (Also known as Baikonur Cosmodrome) |
| Owner | Commonwealth of Independent States (former USSR) |
| NORAD ID | 49050 |
| Date fetched |
Epoch osculation |
Inc. [°] |
Ecc. | RA asc node [hr] |
Arg Peri. [°] |
Mean anom [°] |
Mean motion [rev/day] |
Abs. mag |
| Date fetched |
Epoch osculation |
Inc. [°] |
Ecc. | RA asc node [hr] |
Arg Peri. [°] |
Mean anom [°] |
Mean motion [rev/day] |
Abs. mag |
| 2026 May 07 17:58 | 2026 May 05 09:59:38 | 71.0126 | 0.00087 | 16.1300 | 182.4491 | 177.6595 | 14.24027 | – |
| 2026 May 06 17:57 | 2026 May 05 09:59:38 | 71.0126 | 0.00087 | 16.1300 | 182.4491 | 177.6595 | 14.24027 | – |
| 2026 May 05 17:57 | 2026 May 05 09:59:38 | 71.0126 | 0.00087 | 16.1300 | 182.4491 | 177.6595 | 14.24027 | – |
| 2026 May 04 17:57 | 2026 Apr 30 10:17:21 | 71.0126 | 0.00091 | 16.8382 | 186.3690 | 177.6595 | 14.24027 | – |
| 2026 May 03 17:57 | 2026 Apr 30 10:17:21 | 71.0126 | 0.00091 | 16.8382 | 186.3690 | 177.6595 | 14.24027 | – |
| 2026 May 02 17:57 | 2026 Apr 30 10:17:21 | 71.0126 | 0.00091 | 16.8382 | 186.3690 | 177.6595 | 14.24027 | – |
| 2026 May 01 17:56 | 2026 Apr 30 10:17:21 | 71.0126 | 0.00091 | 16.8382 | 186.3690 | 177.6595 | 14.24027 | – |
| 2026 Apr 30 17:56 | 2026 Apr 30 10:17:21 | 71.0126 | 0.00091 | 16.8382 | 186.3690 | 177.6595 | 14.24027 | – |
| 2026 Apr 29 17:57 | 2026 Apr 24 10:57:33 | 71.0141 | 0.00094 | 17.6859 | 190.7665 | 177.6595 | 14.24027 | – |
| 2026 Apr 28 17:56 | 2026 Apr 24 10:57:33 | 71.0141 | 0.00094 | 17.6859 | 190.7665 | 177.6595 | 14.24027 | – |
| 2026 Apr 27 17:58 | 2026 Apr 24 10:57:33 | 71.0141 | 0.00094 | 17.6859 | 190.7665 | 177.6595 | 14.24027 | – |
| 2026 Apr 26 17:58 | 2026 Apr 24 10:57:33 | 71.0141 | 0.00094 | 17.6859 | 190.7665 | 177.6595 | 14.24027 | – |
| 2026 Apr 25 17:58 | 2026 Apr 24 10:57:33 | 71.0141 | 0.00094 | 17.6859 | 190.7665 | 177.6595 | 14.24027 | – |
| 2026 Apr 24 17:59 | 2026 Apr 24 10:57:33 | 71.0141 | 0.00094 | 17.6859 | 190.7665 | 177.6595 | 14.24027 | – |
| 2026 Apr 23 17:57 | 2026 Apr 16 17:26:31 | 71.0148 | 0.00094 | 18.7825 | 199.0942 | 177.6595 | 14.24027 | – |
| 2026 Apr 22 17:57 | 2026 Apr 16 17:26:31 | 71.0148 | 0.00094 | 18.7825 | 199.0942 | 177.6595 | 14.24027 | – |
| 2026 Apr 21 17:57 | 2026 Apr 16 17:26:31 | 71.0148 | 0.00094 | 18.7825 | 199.0942 | 177.6595 | 14.24027 | – |
| 2026 Apr 20 17:57 | 2026 Apr 16 17:26:31 | 71.0148 | 0.00094 | 18.7825 | 199.0942 | 177.6595 | 14.24027 | – |
| 2026 Apr 19 17:58 | 2026 Apr 16 17:26:31 | 71.0148 | 0.00094 | 18.7825 | 199.0942 | 177.6595 | 14.24027 | – |
| 2026 Apr 18 17:56 | 2026 Apr 12 12:14:22 | 71.0146 | 0.00091 | 19.3806 | 207.3423 | 177.6595 | 14.24027 | – |
| 2026 Apr 16 17:57 | 2026 Apr 12 12:14:22 | 71.0146 | 0.00091 | 19.3806 | 207.3423 | 177.6595 | 14.24027 | – |
| 2026 Apr 14 17:57 | 2026 Apr 12 12:14:22 | 71.0146 | 0.00091 | 19.3806 | 207.3423 | 177.6595 | 14.24027 | – |
| 2026 Apr 13 17:57 | 2026 Apr 12 12:14:22 | 71.0146 | 0.00091 | 19.3806 | 207.3423 | 177.6595 | 14.24027 | – |
| 2026 Apr 12 17:57 | 2026 Apr 07 15:50:48 | 71.0167 | 0.00093 | 20.0682 | 212.2891 | 177.6595 | 14.24027 | – |
| 2026 Apr 11 17:57 | 2026 Apr 07 15:50:48 | 71.0167 | 0.00093 | 20.0682 | 212.2891 | 177.6595 | 14.24027 | – |
| 2026 Apr 10 17:58 | 2026 Apr 07 15:50:48 | 71.0167 | 0.00093 | 20.0682 | 212.2891 | 177.6595 | 14.24027 | – |